Croton-On-Hudson, New York
Current Conditions -  °F | °C
As of 11:56 PM on Wednesday 22 Oct 2014 (Local Time) from KHPN Reporting Station
Broken Clouds Broken Clouds  
Wind Chill: 50°   Ceiling: 2200
Heat Index: 50°   Visibility: 10mi
Dew Point: 46°   Wind: 16mph
Humidity: 86%   Direction: 360°N
Pressure: 29.72"   Gusts: 31mph
Location:  41.21°N, 73.89°W
Report Text: KHPN 230356Z 36014G27KT 10SM FEW015 BKN022 10/08 A2972 RMK AO2 PK WND 34032/0318 RAE52 SLP066 P0000 T01000078
Loading
Personal Weather Stations






























Interactive Weather Map
Tropical Storm Tracking
New forecast layout! Learn more

10-Day Weather Forecast

Advertisements
Track Severe Weather on mobile